createdAt,value
2022-11-08T00:01:33.863Z,97774.41
2022-11-08T00:06:54.731Z,97767.22
2022-11-08T00:12:15.337Z,97776.34
2022-11-08T00:17:18.486Z,97774.00
2022-11-08T00:22:20.549Z,97767.22
2022-11-08T00:27:24.023Z,97763.72
2022-11-08T00:32:26.721Z,97760.28
2022-11-08T00:37:28.500Z,97762.19
2022-11-08T00:42:30.340Z,97771.78
2022-11-08T00:47:32.103Z,97770.13
2022-11-08T00:52:33.900Z,97765.97
2022-11-08T00:57:54.039Z,97764.91
2022-11-08T01:03:15.940Z,97748.13
2022-11-08T01:08:19.865Z,97741.69
2022-11-08T01:13:23.029Z,97739.13
2022-11-08T01:18:25.150Z,97743.59
2022-11-08T01:23:26.964Z,97730.47
2022-11-08T01:28:28.756Z,97728.06
2022-11-08T01:33:30.572Z,97732.72
2022-11-08T01:38:32.323Z,97741.88
2022-11-08T01:43:46.366Z,97729.09
2022-11-08T01:49:14.427Z,97721.03
2022-11-08T01:54:30.282Z,97717.53
2022-11-08T01:59:34.460Z,97715.50
2022-11-08T02:04:37.773Z,97706.31
2022-11-08T02:09:41.845Z,97703.34
2022-11-08T02:14:43.629Z,97701.00
2022-11-08T02:19:50.837Z,97706.22
2022-11-08T02:24:52.912Z,97706.59
2022-11-08T02:29:55.804Z,97704.81
2022-11-08T02:34:59.398Z,97706.13
2022-11-08T02:40:01.264Z,97698.22
2022-11-08T02:45:03.259Z,97701.09
2022-11-08T02:50:05.626Z,97696.78
2022-11-08T02:55:07.697Z,97699.38
2022-11-08T03:00:10.346Z,97696.53
2022-11-08T03:05:12.115Z,97698.88
2022-11-08T03:10:14.770Z,97703.25
2022-11-08T03:15:16.538Z,97702.44
2022-11-08T03:20:18.586Z,97690.31
2022-11-08T03:25:20.357Z,97698.94
2022-11-08T03:30:22.202Z,97698.31
2022-11-08T03:35:24.298Z,97698.03
2022-11-08T03:40:26.766Z,97701.03
2022-11-08T03:45:28.546Z,97702.03
2022-11-08T03:50:30.390Z,97690.28
2022-11-08T03:55:32.294Z,97689.28
2022-11-08T04:00:34.090Z,97691.63
2022-11-08T04:05:35.966Z,97702.31
2022-11-08T04:10:37.847Z,97693.94
2022-11-08T04:15:39.787Z,97697.75
2022-11-08T04:21:05.765Z,97693.91
2022-11-08T04:26:08.547Z,97697.06
2022-11-08T04:31:14.051Z,97698.72
2022-11-08T04:36:17.542Z,97691.28
2022-11-08T04:41:22.257Z,97692.16
2022-11-08T04:46:26.569Z,97689.34
2022-11-08T04:51:31.051Z,97680.28
2022-11-08T04:56:32.882Z,97687.06
2022-11-08T05:01:34.811Z,97687.28
2022-11-08T05:06:36.830Z,97690.34
2022-11-08T05:11:38.608Z,97689.34
2022-11-08T05:16:40.471Z,97684.63
2022-11-08T05:22:00.791Z,97690.19
2022-11-08T05:27:02.580Z,97681.25
2022-11-08T05:32:04.523Z,97676.63
2022-11-08T05:37:06.270Z,97684.09
2022-11-08T05:42:08.026Z,97691.66
2022-11-08T05:47:10.235Z,97681.13
2022-11-08T05:52:11.966Z,97683.44
2022-11-08T05:57:13.747Z,97678.00
2022-11-08T06:02:17.177Z,97672.44
2022-11-08T06:07:18.974Z,97668.50
2022-11-08T06:12:20.844Z,97671.06
2022-11-08T06:17:26.338Z,97674.50
2022-11-08T06:22:32.639Z,97664.63
2022-11-08T06:27:34.738Z,97671.94
2022-11-08T06:32:36.478Z,97664.31
2022-11-08T06:37:38.237Z,97665.44
2022-11-08T06:42:40.084Z,97664.63
2022-11-08T06:47:41.825Z,97663.09
2022-11-08T06:52:43.579Z,97666.78
2022-11-08T06:57:45.355Z,97661.63
2022-11-08T07:02:59.417Z,97659.47
2022-11-08T07:08:01.920Z,97655.91
2022-11-08T07:13:06.720Z,97660.31
2022-11-08T07:18:13.376Z,97657.72
2022-11-08T07:23:15.290Z,97654.69
2022-11-08T07:28:18.724Z,97653.53
2022-11-08T07:33:21.103Z,97657.72
2022-11-08T07:38:23.544Z,97656.22
2022-11-08T07:43:27.233Z,97654.41
2022-11-08T07:48:32.193Z,97652.66
2022-11-08T07:53:34.038Z,97649.09
2022-11-08T07:58:35.869Z,97648.91
2022-11-08T08:03:37.685Z,97657.06
2022-11-08T08:08:39.428Z,97652.53
2022-11-08T08:13:41.681Z,97653.28
2022-11-08T08:18:43.440Z,97653.78
2022-11-08T08:23:45.208Z,97653.31
2022-11-08T08:28:47.030Z,97649.31
2022-11-08T08:33:48.820Z,97648.69
2022-11-08T08:38:50.570Z,97636.31
2022-11-08T08:43:52.321Z,97644.56
2022-11-08T08:48:54.169Z,97639.09
2022-11-08T08:53:55.929Z,97633.38
2022-11-08T09:04:19.648Z,97636.53
2022-11-08T09:09:22.187Z,97626.41
2022-11-08T09:14:23.911Z,97625.69
2022-11-08T09:19:25.796Z,97628.72
2022-11-08T09:24:27.550Z,97625.09
2022-11-08T09:29:33.452Z,97634.06
2022-11-08T09:34:36.338Z,97638.25
2022-11-08T09:39:38.103Z,97625.75
2022-11-08T09:44:50.947Z,97624.44
2022-11-08T09:50:30.367Z,97619.09
2022-11-08T09:55:37.453Z,97621.03
2022-11-08T10:00:40.789Z,97611.59
2022-11-08T10:05:51.004Z,97608.91
2022-11-08T10:10:57.772Z,97603.94
2022-11-08T10:16:18.079Z,97608.66
2022-11-08T10:21:40.756Z,97601.47
2022-11-08T10:26:47.242Z,97606.41
2022-11-08T10:31:56.871Z,97605.97
2022-11-08T10:37:03.641Z,97588.13
2022-11-08T10:42:16.476Z,97583.00
2022-11-08T10:47:21.199Z,97578.78
2022-11-08T10:52:35.120Z,97573.28
2022-11-08T10:57:43.855Z,97565.56
2022-11-08T11:02:48.994Z,97569.81
2022-11-08T11:07:57.634Z,97574.19
2022-11-08T11:13:10.118Z,97563.44
2022-11-08T11:18:24.037Z,97570.31
2022-11-08T11:23:34.389Z,97560.06
2022-11-08T11:28:36.285Z,97552.13
2022-11-08T11:33:45.172Z,97558.81
2022-11-08T11:38:55.540Z,97552.69
2022-11-08T11:44:00.115Z,97549.66
2022-11-08T11:49:12.139Z,97546.94
2022-11-08T11:54:16.353Z,97540.66
2022-11-08T11:59:33.044Z,97530.94
2022-11-08T12:05:16.425Z,97530.44
2022-11-08T12:10:31.736Z,97520.75
2022-11-08T12:15:50.734Z,97509.94
2022-11-08T12:21:08.230Z,97507.63
2022-11-08T12:26:15.712Z,97512.81
2022-11-08T12:31:46.624Z,97503.91
2022-11-08T12:37:02.120Z,97513.97
2022-11-08T12:42:30.206Z,97504.34
2022-11-08T12:47:37.871Z,97498.50
2022-11-08T12:52:48.626Z,97479.63
2022-11-08T12:57:52.483Z,97479.97
2022-11-08T13:03:28.677Z,97477.81
2022-11-08T13:08:40.642Z,97471.41
2022-11-08T13:13:54.781Z,97467.53
2022-11-08T13:19:01.444Z,97465.56
2022-11-08T13:24:09.937Z,97460.41
2022-11-08T13:29:27.431Z,97451.41
2022-11-08T13:35:04.907Z,97436.19
2022-11-08T13:40:31.687Z,97438.19
2022-11-08T13:45:34.600Z,97440.88
2022-11-08T13:50:49.870Z,97433.41
2022-11-08T13:55:57.527Z,97427.06
2022-11-08T14:01:01.220Z,97439.31
2022-11-08T14:06:05.977Z,97439.59
2022-11-08T14:11:34.996Z,97457.69
2022-11-08T14:16:47.135Z,97453.72
2022-11-08T14:21:51.482Z,97453.13
2022-11-08T14:26:53.599Z,97459.41
2022-11-08T14:32:07.307Z,97447.81
2022-11-08T14:37:19.895Z,97433.09
2022-11-08T14:42:26.262Z,97437.13
2022-11-08T14:47:32.185Z,97434.03
2022-11-08T14:52:33.907Z,97435.38
2022-11-08T14:57:43.885Z,97435.47
2022-11-08T15:03:10.560Z,97422.81
2022-11-08T15:08:49.770Z,97433.03
2022-11-08T15:13:51.942Z,97438.28
2022-11-08T15:18:53.826Z,97432.84
2022-11-08T15:24:12.551Z,97432.00
2022-11-08T15:29:14.051Z,97436.72
2022-11-08T15:34:26.125Z,97427.34
2022-11-08T15:39:38.978Z,97434.44
2022-11-08T15:45:14.724Z,97429.22
2022-11-08T15:50:22.304Z,97426.69
2022-11-08T15:55:28.170Z,97426.22
2022-11-08T16:00:36.338Z,97426.91
2022-11-08T16:05:38.171Z,97424.13
2022-11-08T16:10:44.024Z,97410.16
2022-11-08T16:15:46.950Z,97405.44
2022-11-08T16:20:48.533Z,97400.69
2022-11-08T16:25:52.694Z,97397.56
2022-11-08T16:30:54.277Z,97402.34
2022-11-08T16:35:58.160Z,97408.78
2022-11-08T16:41:00.113Z,97420.41
2022-11-08T16:46:06.922Z,97424.66
2022-11-08T16:51:25.320Z,97432.84
2022-11-08T16:56:27.043Z,97434.06
2022-11-08T17:01:33.200Z,97425.44
2022-11-08T17:06:34.908Z,97421.91
2022-11-08T17:11:38.563Z,97430.81
2022-11-08T17:16:40.131Z,97445.66
2022-11-08T17:21:45.877Z,97445.84
2022-11-08T17:26:47.746Z,97445.50
2022-11-08T17:31:49.639Z,97448.09
2022-11-08T17:36:52.861Z,97441.31
2022-11-08T17:41:54.515Z,97445.81
2022-11-08T17:46:56.323Z,97445.69
2022-11-08T17:51:57.997Z,97432.38
2022-11-08T17:56:59.631Z,97450.00
2022-11-08T18:02:01.409Z,97446.41
2022-11-08T18:07:03.076Z,97440.38
2022-11-08T18:12:05.082Z,97432.47
2022-11-08T18:17:06.682Z,97432.25
2022-11-08T18:22:08.271Z,97439.75
2022-11-08T18:27:10.095Z,97443.97
2022-11-08T18:32:11.720Z,97445.53
2022-11-08T18:37:13.293Z,97448.25
2022-11-08T18:42:14.880Z,97442.69
2022-11-08T18:47:16.535Z,97442.59
2022-11-08T18:52:18.100Z,97438.22
2022-11-08T18:57:19.926Z,97430.97
2022-11-08T19:02:23.287Z,97431.44
2022-11-08T19:07:25.159Z,97435.88
2022-11-08T19:12:29.042Z,97440.72
2022-11-08T19:17:31.894Z,97435.16
2022-11-08T19:22:33.541Z,97435.63
2022-11-08T19:27:35.112Z,97428.38
2022-11-08T19:32:36.693Z,97434.22
2022-11-08T19:37:38.244Z,97445.91
2022-11-08T19:42:39.791Z,97443.28
2022-11-08T19:47:41.440Z,97443.31
2022-11-08T19:52:42.988Z,97444.31
2022-11-08T19:57:44.658Z,97441.72
2022-11-08T20:02:46.270Z,97448.00
2022-11-08T20:07:48.391Z,97441.59
2022-11-08T20:12:50.019Z,97443.50
2022-11-08T20:17:51.640Z,97443.00
2022-11-08T20:22:53.446Z,97435.72
2022-11-08T20:27:54.983Z,97428.72
2022-11-08T20:32:56.904Z,97422.63
2022-11-08T20:37:58.542Z,97415.22
2022-11-08T20:43:00.086Z,97428.06
2022-11-08T20:48:02.833Z,97428.47
2022-11-08T20:53:04.597Z,97428.75
2022-11-08T20:58:06.152Z,97420.56
2022-11-08T21:03:07.824Z,97428.03
2022-11-08T21:08:58.029Z,97431.34
2022-11-08T21:13:34.379Z,97424.88
2022-11-08T21:18:36.988Z,97420.28
2022-11-08T21:23:40.664Z,97416.06
2022-11-08T21:28:42.489Z,97416.22
2022-11-08T21:33:44.073Z,97406.66
2022-11-08T21:38:45.774Z,97409.09
2022-11-08T21:43:47.664Z,97404.81
2022-11-08T21:49:00.692Z,97411.31
2022-11-08T21:54:02.907Z,97401.47
2022-11-08T21:59:04.503Z,97407.34
2022-11-08T22:04:06.094Z,97401.69
2022-11-08T22:09:07.663Z,97396.34
2022-11-08T22:14:09.303Z,97398.28
2022-11-08T22:19:11.600Z,97398.97
2022-11-08T22:24:22.476Z,97394.97
2022-11-08T22:29:24.220Z,97392.38
2022-11-08T22:34:25.820Z,97390.28
2022-11-08T22:39:27.365Z,97386.22
2022-11-08T22:44:29.072Z,97386.72
2022-11-08T22:49:30.643Z,97386.34
2022-11-08T22:54:32.270Z,97388.13
2022-11-08T22:59:33.813Z,97392.00
2022-11-08T23:04:35.365Z,97388.28
2022-11-08T23:09:36.950Z,97395.06
2022-11-08T23:14:57.128Z,97386.72
2022-11-08T23:20:17.375Z,97392.91
2022-11-08T23:25:19.053Z,97396.13
2022-11-08T23:30:39.352Z,97392.91
2022-11-08T23:36:01.151Z,97395.59
2022-11-08T23:41:21.785Z,97405.53
2022-11-08T23:46:23.594Z,97406.69
2022-11-08T23:51:25.375Z,97398.66
2022-11-08T23:56:28.228Z,97399.97
